Terminal Aerodrome Forecast
Issued by NWS North Platte, NE

Home | Current Version | Previous Version | Text Only | Print | Product List | Glossary On
Versions: 1 2 3 4 5 6 7 8 9 10 11 12
056
FTUS43 KLBF 082320
TAFVTN
TAF
KVTN 082320Z 0900/0924 32014KT P6SM SCT070
     FM090400 32009KT P6SM OVC070
     FM091300 33008KT P6SM OVC025
      TEMPO 0913/0917 -SN BKN020 OVC035=

USA.gov is the U.S. government's official web portal to all federal, state and local government web resources and services.